sensor_id;sensor_type;location;lat;lon;timestamp;P1;durP1;ratioP1;P2;durP2;ratioP2
51090;SDS011;37136;43.614;3.908;2022-11-12T00:02:19;15.27;;;9.63;;
51090;SDS011;37136;43.614;3.908;2022-11-12T00:04:45;14.55;;;9.02;;
51090;SDS011;37136;43.614;3.908;2022-11-12T00:07:12;14.48;;;9.35;;
51090;SDS011;37136;43.614;3.908;2022-11-12T00:09:38;17.98;;;9.95;;
51090;SDS011;37136;43.614;3.908;2022-11-12T00:12:04;14.40;;;9.27;;
51090;SDS011;37136;43.614;3.908;2022-11-12T00:14:30;13.45;;;9.30;;
51090;SDS011;37136;43.614;3.908;2022-11-12T00:16:56;15.70;;;9.30;;
51090;SDS011;37136;43.614;3.908;2022-11-12T00:19:22;19.15;;;10.63;;
51090;SDS011;37136;43.614;3.908;2022-11-12T00:21:49;18.17;;;9.65;;
51090;SDS011;37136;43.614;3.908;2022-11-12T00:24:15;15.52;;;10.30;;
51090;SDS011;37136;43.614;3.908;2022-11-12T00:26:41;13.85;;;8.82;;
51090;SDS011;37136;43.614;3.908;2022-11-12T00:29:07;13.98;;;8.93;;
51090;SDS011;37136;43.614;3.908;2022-11-12T00:31:33;13.25;;;9.15;;
51090;SDS011;37136;43.614;3.908;2022-11-12T00:34:00;13.32;;;8.38;;
51090;SDS011;37136;43.614;3.908;2022-11-12T00:36:26;16.88;;;9.68;;
51090;SDS011;37136;43.614;3.908;2022-11-12T00:38:53;15.68;;;9.48;;
51090;SDS011;37136;43.614;3.908;2022-11-12T00:41:19;15.10;;;9.75;;
51090;SDS011;37136;43.614;3.908;2022-11-12T00:43:45;16.88;;;9.50;;
51090;SDS011;37136;43.614;3.908;2022-11-12T00:46:11;13.10;;;9.00;;
51090;SDS011;37136;43.614;3.908;2022-11-12T00:48:37;15.95;;;9.35;;
51090;SDS011;37136;43.614;3.908;2022-11-12T00:51:04;15.25;;;8.68;;
51090;SDS011;37136;43.614;3.908;2022-11-12T00:53:31;13.13;;;8.35;;
51090;SDS011;37136;43.614;3.908;2022-11-12T00:56:01;13.75;;;9.40;;
51090;SDS011;37136;43.614;3.908;2022-11-12T00:58:28;16.58;;;8.63;;
51090;SDS011;37136;43.614;3.908;2022-11-12T01:00:54;13.75;;;7.63;;
51090;SDS011;37136;43.614;3.908;2022-11-12T01:03:21;11.10;;;7.45;;
51090;SDS011;37136;43.614;3.908;2022-11-12T01:05:47;14.75;;;8.30;;
51090;SDS011;37136;43.614;3.908;2022-11-12T01:08:13;15.20;;;7.90;;
51090;SDS011;37136;43.614;3.908;2022-11-12T01:10:39;12.38;;;8.25;;
51090;SDS011;37136;43.614;3.908;2022-11-12T01:13:05;10.27;;;8.20;;
51090;SDS011;37136;43.614;3.908;2022-11-12T01:15:31;10.30;;;7.70;;
51090;SDS011;37136;43.614;3.908;2022-11-12T01:17:57;13.07;;;7.70;;
51090;SDS011;37136;43.614;3.908;2022-11-12T01:20:24;11.23;;;7.55;;
51090;SDS011;37136;43.614;3.908;2022-11-12T01:22:50;13.35;;;7.78;;
51090;SDS011;37136;43.614;3.908;2022-11-12T01:25:16;12.05;;;7.82;;
51090;SDS011;37136;43.614;3.908;2022-11-12T01:27:42;11.65;;;6.97;;
51090;SDS011;37136;43.614;3.908;2022-11-12T01:30:08;9.15;;;6.70;;
51090;SDS011;37136;43.614;3.908;2022-11-12T01:32:35;14.27;;;7.38;;
51090;SDS011;37136;43.614;3.908;2022-11-12T01:35:02;14.70;;;7.13;;
51090;SDS011;37136;43.614;3.908;2022-11-12T01:37:28;10.80;;;6.68;;
51090;SDS011;37136;43.614;3.908;2022-11-12T01:39:54;11.25;;;7.13;;
51090;SDS011;37136;43.614;3.908;2022-11-12T01:42:22;16.52;;;7.55;;
51090;SDS011;37136;43.614;3.908;2022-11-12T01:44:50;11.68;;;7.25;;
51090;SDS011;37136;43.614;3.908;2022-11-12T01:47:22;13.75;;;7.13;;
51090;SDS011;37136;43.614;3.908;2022-11-12T01:52:39;9.68;;;6.75;;
51090;SDS011;37136;43.614;3.908;2022-11-12T01:55:13;9.27;;;6.78;;
51090;SDS011;37136;43.614;3.908;2022-11-12T01:57:41;14.48;;;6.80;;
51090;SDS011;37136;43.614;3.908;2022-11-12T02:00:10;10.13;;;6.78;;
51090;SDS011;37136;43.614;3.908;2022-11-12T02:02:37;9.03;;;7.27;;
51090;SDS011;37136;43.614;3.908;2022-11-12T02:05:04;8.60;;;5.78;;
51090;SDS011;37136;43.614;3.908;2022-11-12T02:07:32;9.55;;;5.93;;
51090;SDS011;37136;43.614;3.908;2022-11-12T02:10:00;9.35;;;6.03;;
51090;SDS011;37136;43.614;3.908;2022-11-12T02:12:27;12.82;;;6.22;;
51090;SDS011;37136;43.614;3.908;2022-11-12T02:15:11;9.68;;;6.38;;
51090;SDS011;37136;43.614;3.908;2022-11-12T02:17:37;9.90;;;6.15;;
51090;SDS011;37136;43.614;3.908;2022-11-12T02:20:05;9.95;;;6.47;;
51090;SDS011;37136;43.614;3.908;2022-11-12T02:22:33;8.18;;;6.03;;
51090;SDS011;37136;43.614;3.908;2022-11-12T02:24:59;14.70;;;7.00;;
51090;SDS011;37136;43.614;3.908;2022-11-12T02:27:25;10.55;;;6.30;;
51090;SDS011;37136;43.614;3.908;2022-11-12T02:29:52;13.50;;;6.22;;
51090;SDS011;37136;43.614;3.908;2022-11-12T02:32:18;12.77;;;6.60;;
51090;SDS011;37136;43.614;3.908;2022-11-12T02:34:44;11.13;;;6.78;;
51090;SDS011;37136;43.614;3.908;2022-11-12T02:37:10;9.43;;;6.88;;
51090;SDS011;37136;43.614;3.908;2022-11-12T02:39:36;11.93;;;6.95;;
51090;SDS011;37136;43.614;3.908;2022-11-12T02:42:03;16.10;;;7.25;;
51090;SDS011;37136;43.614;3.908;2022-11-12T02:44:29;8.75;;;6.85;;
51090;SDS011;37136;43.614;3.908;2022-11-12T02:46:56;12.55;;;7.35;;
51090;SDS011;37136;43.614;3.908;2022-11-12T02:49:22;14.38;;;6.88;;
51090;SDS011;37136;43.614;3.908;2022-11-12T02:51:48;10.82;;;6.80;;
51090;SDS011;37136;43.614;3.908;2022-11-12T02:54:14;9.23;;;7.03;;
51090;SDS011;37136;43.614;3.908;2022-11-12T02:56:40;10.00;;;7.65;;
51090;SDS011;37136;43.614;3.908;2022-11-12T02:59:06;11.30;;;7.50;;
51090;SDS011;37136;43.614;3.908;2022-11-12T03:01:32;15.65;;;7.13;;
51090;SDS011;37136;43.614;3.908;2022-11-12T03:03:58;9.48;;;6.78;;
51090;SDS011;37136;43.614;3.908;2022-11-12T03:06:24;12.88;;;7.97;;
51090;SDS011;37136;43.614;3.908;2022-11-12T03:08:50;10.90;;;6.90;;
51090;SDS011;37136;43.614;3.908;2022-11-12T03:11:16;9.75;;;6.82;;
51090;SDS011;37136;43.614;3.908;2022-11-12T03:13:43;9.07;;;6.50;;
51090;SDS011;37136;43.614;3.908;2022-11-12T03:16:09;9.25;;;5.97;;
51090;SDS011;37136;43.614;3.908;2022-11-12T03:18:35;8.98;;;6.38;;
51090;SDS011;37136;43.614;3.908;2022-11-12T03:21:02;10.18;;;6.15;;
51090;SDS011;37136;43.614;3.908;2022-11-12T03:23:28;12.30;;;6.47;;
51090;SDS011;37136;43.614;3.908;2022-11-12T03:25:54;10.15;;;5.75;;
51090;SDS011;37136;43.614;3.908;2022-11-12T03:28:20;12.55;;;7.10;;
51090;SDS011;37136;43.614;3.908;2022-11-12T03:30:47;11.45;;;6.32;;
51090;SDS011;37136;43.614;3.908;2022-11-12T03:33:14;12.35;;;6.45;;
51090;SDS011;37136;43.614;3.908;2022-11-12T03:35:41;13.30;;;7.13;;
51090;SDS011;37136;43.614;3.908;2022-11-12T03:38:07;12.02;;;7.05;;
51090;SDS011;37136;43.614;3.908;2022-11-12T03:40:34;9.02;;;6.38;;
51090;SDS011;37136;43.614;3.908;2022-11-12T03:43:00;8.70;;;6.40;;
51090;SDS011;37136;43.614;3.908;2022-11-12T03:45:26;18.98;;;7.15;;
51090;SDS011;37136;43.614;3.908;2022-11-12T03:47:53;10.45;;;6.13;;
51090;SDS011;37136;43.614;3.908;2022-11-12T03:50:21;14.02;;;5.97;;
51090;SDS011;37136;43.614;3.908;2022-11-12T03:52:51;12.45;;;6.40;;
51090;SDS011;37136;43.614;3.908;2022-11-12T03:55:18;10.55;;;6.05;;
51090;SDS011;37136;43.614;3.908;2022-11-12T03:57:46;10.38;;;6.03;;
51090;SDS011;37136;43.614;3.908;2022-11-12T04:00:12;8.52;;;5.95;;
51090;SDS011;37136;43.614;3.908;2022-11-12T04:02:39;9.48;;;6.57;;
51090;SDS011;37136;43.614;3.908;2022-11-12T04:05:05;7.43;;;5.72;;
51090;SDS011;37136;43.614;3.908;2022-11-12T04:07:57;16.13;;;6.13;;
51090;SDS011;37136;43.614;3.908;2022-11-12T04:10:42;10.60;;;5.57;;
51090;SDS011;37136;43.614;3.908;2022-11-12T04:13:08;10.60;;;6.32;;
51090;SDS011;37136;43.614;3.908;2022-11-12T04:16:07;10.05;;;5.65;;
51090;SDS011;37136;43.614;3.908;2022-11-12T04:18:53;7.68;;;5.60;;
51090;SDS011;37136;43.614;3.908;2022-11-12T04:21:43;8.38;;;5.93;;
51090;SDS011;37136;43.614;3.908;2022-11-12T04:24:34;11.20;;;6.15;;
51090;SDS011;37136;43.614;3.908;2022-11-12T04:27:37;10.68;;;5.88;;
51090;SDS011;37136;43.614;3.908;2022-11-12T04:30:03;8.52;;;5.72;;
51090;SDS011;37136;43.614;3.908;2022-11-12T04:32:52;9.52;;;5.60;;
51090;SDS011;37136;43.614;3.908;2022-11-12T04:35:18;9.65;;;6.22;;
51090;SDS011;37136;43.614;3.908;2022-11-12T04:37:45;8.20;;;5.20;;
51090;SDS011;37136;43.614;3.908;2022-11-12T04:40:13;10.18;;;5.30;;
51090;SDS011;37136;43.614;3.908;2022-11-12T04:42:58;9.27;;;5.80;;
51090;SDS011;37136;43.614;3.908;2022-11-12T04:45:44;6.63;;;5.00;;
51090;SDS011;37136;43.614;3.908;2022-11-12T04:48:11;6.88;;;5.18;;
51090;SDS011;37136;43.614;3.908;2022-11-12T04:50:37;7.75;;;5.30;;
51090;SDS011;37136;43.614;3.908;2022-11-12T04:53:03;11.20;;;5.40;;
51090;SDS011;37136;43.614;3.908;2022-11-12T04:55:30;10.38;;;5.55;;
51090;SDS011;37136;43.614;3.908;2022-11-12T04:57:56;7.93;;;5.93;;
51090;SDS011;37136;43.614;3.908;2022-11-12T05:00:22;7.85;;;5.13;;
51090;SDS011;37136;43.614;3.908;2022-11-12T05:02:49;9.02;;;5.78;;
51090;SDS011;37136;43.614;3.908;2022-11-12T05:05:15;11.68;;;5.45;;
51090;SDS011;37136;43.614;3.908;2022-11-12T05:07:41;11.48;;;5.15;;
51090;SDS011;37136;43.614;3.908;2022-11-12T05:10:07;8.70;;;5.07;;
51090;SDS011;37136;43.614;3.908;2022-11-12T05:12:34;8.48;;;6.07;;
51090;SDS011;37136;43.614;3.908;2022-11-12T05:15:00;12.52;;;5.45;;
51090;SDS011;37136;43.614;3.908;2022-11-12T05:17:26;11.05;;;5.53;;
51090;SDS011;37136;43.614;3.908;2022-11-12T05:19:52;8.75;;;5.68;;
51090;SDS011;37136;43.614;3.908;2022-11-12T05:22:19;9.02;;;6.55;;
51090;SDS011;37136;43.614;3.908;2022-11-12T05:24:45;10.95;;;6.75;;
51090;SDS011;37136;43.614;3.908;2022-11-12T05:27:12;9.35;;;6.70;;
51090;SDS011;37136;43.614;3.908;2022-11-12T05:29:39;10.75;;;6.60;;
51090;SDS011;37136;43.614;3.908;2022-11-12T05:32:06;9.57;;;6.80;;
51090;SDS011;37136;43.614;3.908;2022-11-12T05:34:32;9.30;;;6.80;;
51090;SDS011;37136;43.614;3.908;2022-11-12T05:37:00;8.27;;;5.85;;
51090;SDS011;37136;43.614;3.908;2022-11-12T05:39:26;9.23;;;5.78;;
51090;SDS011;37136;43.614;3.908;2022-11-12T05:41:52;10.05;;;5.88;;
51090;SDS011;37136;43.614;3.908;2022-11-12T05:44:18;8.65;;;5.53;;
51090;SDS011;37136;43.614;3.908;2022-11-12T05:46:45;9.77;;;6.22;;
51090;SDS011;37136;43.614;3.908;2022-11-12T05:49:11;9.55;;;5.90;;
51090;SDS011;37136;43.614;3.908;2022-11-12T05:51:37;6.85;;;5.38;;
51090;SDS011;37136;43.614;3.908;2022-11-12T05:54:03;9.70;;;5.50;;
51090;SDS011;37136;43.614;3.908;2022-11-12T05:56:29;11.88;;;5.55;;
51090;SDS011;37136;43.614;3.908;2022-11-12T05:58:56;9.15;;;6.45;;
51090;SDS011;37136;43.614;3.908;2022-11-12T06:01:22;6.53;;;5.18;;
51090;SDS011;37136;43.614;3.908;2022-11-12T06:03:48;7.55;;;5.28;;
51090;SDS011;37136;43.614;3.908;2022-11-12T06:06:14;5.85;;;4.85;;
51090;SDS011;37136;43.614;3.908;2022-11-12T06:08:40;9.43;;;5.20;;
51090;SDS011;37136;43.614;3.908;2022-11-12T06:11:06;9.20;;;5.18;;
51090;SDS011;37136;43.614;3.908;2022-11-12T06:13:32;7.18;;;5.15;;
51090;SDS011;37136;43.614;3.908;2022-11-12T06:15:58;7.57;;;5.45;;
51090;SDS011;37136;43.614;3.908;2022-11-12T06:18:25;9.35;;;5.50;;
51090;SDS011;37136;43.614;3.908;2022-11-12T06:20:51;8.10;;;5.20;;
51090;SDS011;37136;43.614;3.908;2022-11-12T06:23:43;11.75;;;5.90;;
51090;SDS011;37136;43.614;3.908;2022-11-12T06:26:09;8.65;;;5.43;;
51090;SDS011;37136;43.614;3.908;2022-11-12T06:28:35;7.57;;;5.07;;
51090;SDS011;37136;43.614;3.908;2022-11-12T06:31:02;9.45;;;5.70;;
51090;SDS011;37136;43.614;3.908;2022-11-12T06:33:28;7.45;;;5.28;;
51090;SDS011;37136;43.614;3.908;2022-11-12T06:35:57;9.73;;;6.22;;
51090;SDS011;37136;43.614;3.908;2022-11-12T06:38:28;7.57;;;5.75;;
51090;SDS011;37136;43.614;3.908;2022-11-12T06:40:54;10.05;;;5.47;;
51090;SDS011;37136;43.614;3.908;2022-11-12T06:43:21;8.77;;;5.65;;
51090;SDS011;37136;43.614;3.908;2022-11-12T06:45:47;11.15;;;6.50;;
51090;SDS011;37136;43.614;3.908;2022-11-12T06:48:13;7.90;;;5.28;;
51090;SDS011;37136;43.614;3.908;2022-11-12T06:50:39;8.07;;;5.68;;
51090;SDS011;37136;43.614;3.908;2022-11-12T06:53:05;10.25;;;5.97;;
51090;SDS011;37136;43.614;3.908;2022-11-12T06:55:31;12.60;;;6.47;;
51090;SDS011;37136;43.614;3.908;2022-11-12T06:57:57;9.27;;;5.93;;
51090;SDS011;37136;43.614;3.908;2022-11-12T07:00:24;9.90;;;5.45;;
51090;SDS011;37136;43.614;3.908;2022-11-12T07:02:50;8.13;;;5.28;;
51090;SDS011;37136;43.614;3.908;2022-11-12T07:05:16;7.82;;;5.00;;
51090;SDS011;37136;43.614;3.908;2022-11-12T07:07:42;12.57;;;5.25;;
51090;SDS011;37136;43.614;3.908;2022-11-12T07:10:08;7.55;;;4.93;;
51090;SDS011;37136;43.614;3.908;2022-11-12T07:12:34;10.98;;;5.63;;
51090;SDS011;37136;43.614;3.908;2022-11-12T07:15:00;7.13;;;5.00;;
51090;SDS011;37136;43.614;3.908;2022-11-12T07:17:26;6.35;;;5.55;;
51090;SDS011;37136;43.614;3.908;2022-11-12T07:19:52;7.55;;;4.63;;
51090;SDS011;37136;43.614;3.908;2022-11-12T07:22:18;17.85;;;6.40;;
51090;SDS011;37136;43.614;3.908;2022-11-12T07:24:44;10.13;;;4.80;;
51090;SDS011;37136;43.614;3.908;2022-11-12T07:27:10;7.93;;;4.85;;
51090;SDS011;37136;43.614;3.908;2022-11-12T07:29:36;6.00;;;4.82;;
51090;SDS011;37136;43.614;3.908;2022-11-12T07:32:03;11.55;;;5.40;;
51090;SDS011;37136;43.614;3.908;2022-11-12T07:34:29;7.32;;;4.90;;
51090;SDS011;37136;43.614;3.908;2022-11-12T07:36:55;17.55;;;10.32;;
51090;SDS011;37136;43.614;3.908;2022-11-12T07:39:21;12.80;;;5.82;;
51090;SDS011;37136;43.614;3.908;2022-11-12T07:41:47;13.70;;;5.20;;
51090;SDS011;37136;43.614;3.908;2022-11-12T07:44:13;14.57;;;4.68;;
51090;SDS011;37136;43.614;3.908;2022-11-12T07:46:39;6.15;;;4.38;;
51090;SDS011;37136;43.614;3.908;2022-11-12T07:49:05;11.18;;;4.28;;
51090;SDS011;37136;43.614;3.908;2022-11-12T07:51:31;12.32;;;4.88;;
51090;SDS011;37136;43.614;3.908;2022-11-12T07:53:57;10.07;;;4.50;;
51090;SDS011;37136;43.614;3.908;2022-11-12T07:56:24;5.95;;;4.10;;
51090;SDS011;37136;43.614;3.908;2022-11-12T07:58:51;6.53;;;4.20;;
51090;SDS011;37136;43.614;3.908;2022-11-12T08:03:56;26.77;;;16.50;;
51090;SDS011;37136;43.614;3.908;2022-11-12T08:06:22;8.00;;;4.53;;
51090;SDS011;37136;43.614;3.908;2022-11-12T08:08:52;8.45;;;4.13;;
51090;SDS011;37136;43.614;3.908;2022-11-12T08:11:18;8.30;;;3.95;;
51090;SDS011;37136;43.614;3.908;2022-11-12T08:13:44;10.05;;;3.97;;
51090;SDS011;37136;43.614;3.908;2022-11-12T08:16:11;13.82;;;4.15;;
51090;SDS011;37136;43.614;3.908;2022-11-12T08:18:37;7.30;;;4.40;;
51090;SDS011;37136;43.614;3.908;2022-11-12T08:21:04;5.50;;;3.55;;
51090;SDS011;37136;43.614;3.908;2022-11-12T08:23:30;5.20;;;3.95;;
51090;SDS011;37136;43.614;3.908;2022-11-12T08:26:00;7.38;;;4.20;;
51090;SDS011;37136;43.614;3.908;2022-11-12T08:28:30;8.07;;;3.70;;
51090;SDS011;37136;43.614;3.908;2022-11-12T08:30:57;9.73;;;3.83;;
51090;SDS011;37136;43.614;3.908;2022-11-12T08:33:23;5.82;;;3.92;;
51090;SDS011;37136;43.614;3.908;2022-11-12T08:35:49;5.50;;;3.83;;
51090;SDS011;37136;43.614;3.908;2022-11-12T08:38:15;14.48;;;4.47;;
51090;SDS011;37136;43.614;3.908;2022-11-12T08:40:42;5.97;;;3.45;;
51090;SDS011;37136;43.614;3.908;2022-11-12T08:43:08;5.28;;;3.05;;
51090;SDS011;37136;43.614;3.908;2022-11-12T08:45:35;8.98;;;3.72;;
51090;SDS011;37136;43.614;3.908;2022-11-12T08:48:03;4.60;;;3.50;;
51090;SDS011;37136;43.614;3.908;2022-11-12T08:50:29;7.18;;;3.45;;
51090;SDS011;37136;43.614;3.908;2022-11-12T08:52:59;5.10;;;3.45;;
51090;SDS011;37136;43.614;3.908;2022-11-12T08:55:26;6.40;;;3.38;;
51090;SDS011;37136;43.614;3.908;2022-11-12T08:57:53;14.63;;;3.45;;
51090;SDS011;37136;43.614;3.908;2022-11-12T09:00:19;7.55;;;3.17;;
51090;SDS011;37136;43.614;3.908;2022-11-12T09:02:46;7.88;;;3.58;;
51090;SDS011;37136;43.614;3.908;2022-11-12T09:05:12;8.07;;;2.83;;
51090;SDS011;37136;43.614;3.908;2022-11-12T09:07:38;4.20;;;3.25;;
51090;SDS011;37136;43.614;3.908;2022-11-12T09:10:04;6.40;;;3.78;;
51090;SDS011;37136;43.614;3.908;2022-11-12T09:12:31;5.80;;;3.17;;
51090;SDS011;37136;43.614;3.908;2022-11-12T09:14:57;5.97;;;3.50;;
51090;SDS011;37136;43.614;3.908;2022-11-12T09:17:23;4.00;;;3.03;;
51090;SDS011;37136;43.614;3.908;2022-11-12T09:19:49;7.13;;;3.40;;
51090;SDS011;37136;43.614;3.908;2022-11-12T09:22:16;3.97;;;2.88;;
51090;SDS011;37136;43.614;3.908;2022-11-12T09:24:42;5.75;;;3.15;;
51090;SDS011;37136;43.614;3.908;2022-11-12T09:27:08;6.45;;;3.65;;
51090;SDS011;37136;43.614;3.908;2022-11-12T09:29:34;5.90;;;2.78;;
51090;SDS011;37136;43.614;3.908;2022-11-12T09:32:00;4.18;;;2.95;;
51090;SDS011;37136;43.614;3.908;2022-11-12T09:34:26;7.53;;;3.10;;
51090;SDS011;37136;43.614;3.908;2022-11-12T09:36:53;3.90;;;2.67;;
51090;SDS011;37136;43.614;3.908;2022-11-12T09:39:20;6.10;;;2.67;;
51090;SDS011;37136;43.614;3.908;2022-11-12T09:41:46;3.80;;;2.63;;
51090;SDS011;37136;43.614;3.908;2022-11-12T09:44:13;2.55;;;2.33;;
51090;SDS011;37136;43.614;3.908;2022-11-12T09:46:48;7.73;;;2.70;;
51090;SDS011;37136;43.614;3.908;2022-11-12T09:51:42;3.25;;;2.47;;
51090;SDS011;37136;43.614;3.908;2022-11-12T09:56:54;5.03;;;2.80;;
51090;SDS011;37136;43.614;3.908;2022-11-12T09:59:21;2.70;;;2.50;;
51090;SDS011;37136;43.614;3.908;2022-11-12T10:09:56;4.80;;;2.63;;
51090;SDS011;37136;43.614;3.908;2022-11-12T10:12:32;6.32;;;3.17;;
51090;SDS011;37136;43.614;3.908;2022-11-12T10:18:12;6.35;;;2.28;;
51090;SDS011;37136;43.614;3.908;2022-11-12T10:25:35;3.58;;;2.38;;
51090;SDS011;37136;43.614;3.908;2022-11-12T10:28:17;4.90;;;2.53;;
51090;SDS011;37136;43.614;3.908;2022-11-12T10:30:46;4.20;;;2.42;;
51090;SDS011;37136;43.614;3.908;2022-11-12T10:33:13;5.35;;;2.83;;
51090;SDS011;37136;43.614;3.908;2022-11-12T10:35:39;7.78;;;2.47;;
51090;SDS011;37136;43.614;3.908;2022-11-12T10:38:06;4.57;;;2.08;;
51090;SDS011;37136;43.614;3.908;2022-11-12T10:40:37;8.77;;;2.70;;
51090;SDS011;37136;43.614;3.908;2022-11-12T10:45:46;6.88;;;2.67;;
51090;SDS011;37136;43.614;3.908;2022-11-12T10:48:26;8.55;;;3.38;;
51090;SDS011;37136;43.614;3.908;2022-11-12T10:50:53;5.10;;;2.40;;
51090;SDS011;37136;43.614;3.908;2022-11-12T10:53:38;6.13;;;2.17;;
51090;SDS011;37136;43.614;3.908;2022-11-12T10:56:21;3.47;;;2.35;;
51090;SDS011;37136;43.614;3.908;2022-11-12T11:01:53;8.05;;;2.90;;
51090;SDS011;37136;43.614;3.908;2022-11-12T11:04:28;4.70;;;2.38;;
51090;SDS011;37136;43.614;3.908;2022-11-12T11:06:58;4.15;;;2.40;;
51090;SDS011;37136;43.614;3.908;2022-11-12T11:09:25;5.38;;;2.75;;
51090;SDS011;37136;43.614;3.908;2022-11-12T11:11:51;3.08;;;2.33;;
51090;SDS011;37136;43.614;3.908;2022-11-12T11:16:48;4.75;;;2.22;;
51090;SDS011;37136;43.614;3.908;2022-11-12T11:19:15;3.22;;;2.20;;
51090;SDS011;37136;43.614;3.908;2022-11-12T11:24:17;6.43;;;2.80;;
51090;SDS011;37136;43.614;3.908;2022-11-12T11:31:59;5.68;;;2.78;;
51090;SDS011;37136;43.614;3.908;2022-11-12T11:47:28;6.03;;;2.45;;
51090;SDS011;37136;43.614;3.908;2022-11-12T11:52:52;6.10;;;2.70;;
51090;SDS011;37136;43.614;3.908;2022-11-12T12:03:17;7.10;;;3.00;;
51090;SDS011;37136;43.614;3.908;2022-11-12T12:21:11;4.40;;;2.30;;
51090;SDS011;37136;43.614;3.908;2022-11-12T12:26:15;4.63;;;2.45;;
51090;SDS011;37136;43.614;3.908;2022-11-12T12:28:44;5.93;;;2.28;;
51090;SDS011;37136;43.614;3.908;2022-11-12T12:31:13;4.53;;;2.38;;
51090;SDS011;37136;43.614;3.908;2022-11-12T12:36:11;4.53;;;2.17;;
51090;SDS011;37136;43.614;3.908;2022-11-12T12:38:42;4.70;;;2.10;;
51090;SDS011;37136;43.614;3.908;2022-11-12T12:44:11;4.57;;;2.28;;
51090;SDS011;37136;43.614;3.908;2022-11-12T12:46:55;3.13;;;2.28;;
51090;SDS011;37136;43.614;3.908;2022-11-12T12:49:31;4.93;;;2.47;;
51090;SDS011;37136;43.614;3.908;2022-11-12T12:51:59;6.60;;;2.15;;
51090;SDS011;37136;43.614;3.908;2022-11-12T12:55:14;5.18;;;2.30;;
51090;SDS011;37136;43.614;3.908;2022-11-12T13:02:41;3.53;;;2.30;;
51090;SDS011;37136;43.614;3.908;2022-11-12T13:07:52;4.78;;;2.03;;
51090;SDS011;37136;43.614;3.908;2022-11-12T13:15:48;5.43;;;2.10;;
51090;SDS011;37136;43.614;3.908;2022-11-12T13:21:09;4.05;;;1.95;;
51090;SDS011;37136;43.614;3.908;2022-11-12T13:34:41;7.15;;;2.33;;
51090;SDS011;37136;43.614;3.908;2022-11-12T13:37:11;4.55;;;2.05;;
51090;SDS011;37136;43.614;3.908;2022-11-12T13:39:42;3.42;;;1.88;;
51090;SDS011;37136;43.614;3.908;2022-11-12T13:42:12;1.73;;;1.63;;
51090;SDS011;37136;43.614;3.908;2022-11-12T13:44:58;4.10;;;1.90;;
51090;SDS011;37136;43.614;3.908;2022-11-12T13:47:25;5.53;;;1.92;;
51090;SDS011;37136;43.614;3.908;2022-11-12T13:49:54;6.25;;;2.70;;
51090;SDS011;37136;43.614;3.908;2022-11-12T13:52:21;3.92;;;2.05;;
51090;SDS011;37136;43.614;3.908;2022-11-12T13:54:48;3.08;;;1.48;;
51090;SDS011;37136;43.614;3.908;2022-11-12T13:57:27;3.97;;;2.03;;
51090;SDS011;37136;43.614;3.908;2022-11-12T14:00:06;3.25;;;2.10;;
51090;SDS011;37136;43.614;3.908;2022-11-12T14:02:33;2.85;;;1.75;;
51090;SDS011;37136;43.614;3.908;2022-11-12T14:05:01;2.50;;;1.85;;
51090;SDS011;37136;43.614;3.908;2022-11-12T14:15:19;2.70;;;1.80;;
51090;SDS011;37136;43.614;3.908;2022-11-12T14:20:27;2.70;;;2.13;;
51090;SDS011;37136;43.614;3.908;2022-11-12T14:22:55;3.08;;;1.52;;
51090;SDS011;37136;43.614;3.908;2022-11-12T14:25:23;2.58;;;1.90;;
51090;SDS011;37136;43.614;3.908;2022-11-12T14:27:53;2.43;;;1.53;;
51090;SDS011;37136;43.614;3.908;2022-11-12T14:32:59;5.25;;;1.75;;
51090;SDS011;37136;43.614;3.908;2022-11-12T14:35:27;2.70;;;1.90;;
51090;SDS011;37136;43.614;3.908;2022-11-12T14:37:55;3.55;;;2.13;;
51090;SDS011;37136;43.614;3.908;2022-11-12T14:40:22;3.33;;;1.58;;
51090;SDS011;37136;43.614;3.908;2022-11-12T14:42:49;3.53;;;2.05;;
51090;SDS011;37136;43.614;3.908;2022-11-12T14:45:17;3.40;;;1.90;;
51090;SDS011;37136;43.614;3.908;2022-11-12T14:47:44;3.05;;;1.77;;
51090;SDS011;37136;43.614;3.908;2022-11-12T14:50:13;3.85;;;1.98;;
51090;SDS011;37136;43.614;3.908;2022-11-12T14:52:41;2.80;;;1.77;;
51090;SDS011;37136;43.614;3.908;2022-11-12T14:55:13;3.58;;;1.80;;
51090;SDS011;37136;43.614;3.908;2022-11-12T14:57:40;4.82;;;1.75;;
51090;SDS011;37136;43.614;3.908;2022-11-12T15:00:20;2.85;;;1.83;;
51090;SDS011;37136;43.614;3.908;2022-11-12T15:02:50;6.68;;;2.10;;
51090;SDS011;37136;43.614;3.908;2022-11-12T15:05:17;3.92;;;1.83;;
51090;SDS011;37136;43.614;3.908;2022-11-12T15:15:33;2.22;;;1.50;;
51090;SDS011;37136;43.614;3.908;2022-11-12T15:18:01;2.42;;;1.90;;
51090;SDS011;37136;43.614;3.908;2022-11-12T15:20:28;5.97;;;2.40;;
51090;SDS011;37136;43.614;3.908;2022-11-12T15:22:54;5.25;;;2.75;;
51090;SDS011;37136;43.614;3.908;2022-11-12T15:27:50;7.97;;;3.63;;
51090;SDS011;37136;43.614;3.908;2022-11-12T15:30:24;4.93;;;2.90;;
51090;SDS011;37136;43.614;3.908;2022-11-12T15:35:36;6.13;;;3.47;;
51090;SDS011;37136;43.614;3.908;2022-11-12T15:38:04;8.07;;;3.28;;
51090;SDS011;37136;43.614;3.908;2022-11-12T15:40:36;18.10;;;3.75;;
51090;SDS011;37136;43.614;3.908;2022-11-12T15:43:17;6.32;;;3.22;;
51090;SDS011;37136;43.614;3.908;2022-11-12T15:45:47;4.85;;;2.90;;
51090;SDS011;37136;43.614;3.908;2022-11-12T15:48:14;6.50;;;3.08;;
51090;SDS011;37136;43.614;3.908;2022-11-12T15:50:40;3.85;;;2.97;;
51090;SDS011;37136;43.614;3.908;2022-11-12T15:53:06;4.95;;;3.15;;
51090;SDS011;37136;43.614;3.908;2022-11-12T15:55:33;9.00;;;3.40;;
51090;SDS011;37136;43.614;3.908;2022-11-12T15:57:59;5.07;;;2.88;;
51090;SDS011;37136;43.614;3.908;2022-11-12T16:00:29;5.25;;;3.00;;
51090;SDS011;37136;43.614;3.908;2022-11-12T16:05:28;8.07;;;3.40;;
51090;SDS011;37136;43.614;3.908;2022-11-12T16:07:55;8.95;;;3.55;;
51090;SDS011;37136;43.614;3.908;2022-11-12T16:10:21;9.40;;;2.80;;
51090;SDS011;37136;43.614;3.908;2022-11-12T16:12:56;3.75;;;2.83;;
51090;SDS011;37136;43.614;3.908;2022-11-12T16:15:22;5.75;;;3.00;;
51090;SDS011;37136;43.614;3.908;2022-11-12T16:17:52;9.43;;;3.70;;
51090;SDS011;37136;43.614;3.908;2022-11-12T16:20:21;5.97;;;3.72;;
51090;SDS011;37136;43.614;3.908;2022-11-12T16:22:48;6.10;;;3.10;;
51090;SDS011;37136;43.614;3.908;2022-11-12T16:25:15;5.65;;;3.17;;
51090;SDS011;37136;43.614;3.908;2022-11-12T16:27:41;7.43;;;3.75;;
51090;SDS011;37136;43.614;3.908;2022-11-12T16:32:39;4.43;;;3.90;;
51090;SDS011;37136;43.614;3.908;2022-11-12T16:35:06;6.82;;;3.72;;
51090;SDS011;37136;43.614;3.908;2022-11-12T16:37:32;5.80;;;3.58;;
51090;SDS011;37136;43.614;3.908;2022-11-12T16:39:59;8.38;;;4.03;;
51090;SDS011;37136;43.614;3.908;2022-11-12T16:42:25;6.38;;;3.47;;
51090;SDS011;37136;43.614;3.908;2022-11-12T16:44:51;7.40;;;4.18;;
51090;SDS011;37136;43.614;3.908;2022-11-12T16:47:17;7.88;;;4.00;;
51090;SDS011;37136;43.614;3.908;2022-11-12T16:49:43;7.13;;;4.20;;
51090;SDS011;37136;43.614;3.908;2022-11-12T16:52:10;7.43;;;4.75;;
51090;SDS011;37136;43.614;3.908;2022-11-12T16:54:36;6.63;;;4.07;;
51090;SDS011;37136;43.614;3.908;2022-11-12T16:57:02;8.73;;;3.80;;
51090;SDS011;37136;43.614;3.908;2022-11-12T16:59:29;10.10;;;4.70;;
51090;SDS011;37136;43.614;3.908;2022-11-12T17:01:55;6.78;;;4.28;;
51090;SDS011;37136;43.614;3.908;2022-11-12T17:04:24;6.18;;;4.20;;
51090;SDS011;37136;43.614;3.908;2022-11-12T17:06:50;10.35;;;4.97;;
51090;SDS011;37136;43.614;3.908;2022-11-12T17:09:17;9.98;;;5.10;;
51090;SDS011;37136;43.614;3.908;2022-11-12T17:11:43;6.90;;;4.60;;
51090;SDS011;37136;43.614;3.908;2022-11-12T17:14:09;8.38;;;5.35;;
51090;SDS011;37136;43.614;3.908;2022-11-12T17:16:35;9.80;;;5.55;;
51090;SDS011;37136;43.614;3.908;2022-11-12T17:19:02;12.18;;;6.63;;